sensor_id;sensor_type;location;lat;lon;timestamp;P1;durP1;ratioP1;P2;durP2;ratioP2
27412;SDS011;14871;52.702;5.230;2023-05-10T00:00:01;10.48;;;7.97;;
27412;SDS011;14871;52.702;5.230;2023-05-10T00:02:29;8.50;;;7.18;;
27412;SDS011;14871;52.702;5.230;2023-05-10T00:04:55;11.90;;;7.65;;
27412;SDS011;14871;52.702;5.230;2023-05-10T00:07:21;9.95;;;7.53;;
27412;SDS011;14871;52.702;5.230;2023-05-10T00:09:47;10.35;;;6.97;;
27412;SDS011;14871;52.702;5.230;2023-05-10T00:12:13;10.02;;;7.35;;
27412;SDS011;14871;52.702;5.230;2023-05-10T00:14:39;10.20;;;7.00;;
27412;SDS011;14871;52.702;5.230;2023-05-10T00:17:05;9.10;;;6.53;;
27412;SDS011;14871;52.702;5.230;2023-05-10T00:19:31;9.52;;;6.43;;
27412;SDS011;14871;52.702;5.230;2023-05-10T00:21:57;9.05;;;7.00;;
27412;SDS011;14871;52.702;5.230;2023-05-10T00:24:22;8.45;;;6.53;;
27412;SDS011;14871;52.702;5.230;2023-05-10T00:26:48;9.80;;;5.72;;
27412;SDS011;14871;52.702;5.230;2023-05-10T00:29:14;10.88;;;6.13;;
27412;SDS011;14871;52.702;5.230;2023-05-10T00:31:40;7.93;;;4.97;;
27412;SDS011;14871;52.702;5.230;2023-05-10T00:34:06;7.18;;;5.43;;
27412;SDS011;14871;52.702;5.230;2023-05-10T00:36:31;7.38;;;4.93;;
27412;SDS011;14871;52.702;5.230;2023-05-10T00:38:58;8.30;;;4.88;;
27412;SDS011;14871;52.702;5.230;2023-05-10T00:41:24;8.35;;;4.95;;
27412;SDS011;14871;52.702;5.230;2023-05-10T00:43:50;7.13;;;5.22;;
27412;SDS011;14871;52.702;5.230;2023-05-10T00:46:16;8.07;;;5.57;;
27412;SDS011;14871;52.702;5.230;2023-05-10T00:48:42;10.65;;;6.25;;
27412;SDS011;14871;52.702;5.230;2023-05-10T00:51:10;8.65;;;5.95;;
27412;SDS011;14871;52.702;5.230;2023-05-10T00:53:36;9.40;;;6.60;;
27412;SDS011;14871;52.702;5.230;2023-05-10T00:56:02;8.85;;;6.55;;
27412;SDS011;14871;52.702;5.230;2023-05-10T00:58:28;8.48;;;5.80;;
27412;SDS011;14871;52.702;5.230;2023-05-10T01:00:55;8.82;;;6.82;;
27412;SDS011;14871;52.702;5.230;2023-05-10T01:03:22;8.95;;;6.97;;
27412;SDS011;14871;52.702;5.230;2023-05-10T01:05:49;11.30;;;8.13;;
27412;SDS011;14871;52.702;5.230;2023-05-10T01:08:15;10.77;;;7.20;;
27412;SDS011;14871;52.702;5.230;2023-05-10T01:10:41;10.18;;;7.70;;
27412;SDS011;14871;52.702;5.230;2023-05-10T01:13:08;12.90;;;9.07;;
27412;SDS011;14871;52.702;5.230;2023-05-10T01:15:34;12.05;;;8.55;;
27412;SDS011;14871;52.702;5.230;2023-05-10T01:18:01;14.27;;;9.20;;
27412;SDS011;14871;52.702;5.230;2023-05-10T01:20:29;12.85;;;9.20;;
27412;SDS011;14871;52.702;5.230;2023-05-10T01:34:09;14.45;;;10.88;;
27412;SDS011;14871;52.702;5.230;2023-05-10T01:36:48;15.73;;;10.13;;
27412;SDS011;14871;52.702;5.230;2023-05-10T01:41:55;14.10;;;11.15;;
27412;SDS011;14871;52.702;5.230;2023-05-10T01:44:33;14.05;;;11.15;;
27412;SDS011;14871;52.702;5.230;2023-05-10T01:47:07;14.50;;;10.75;;
27412;SDS011;14871;52.702;5.230;2023-05-10T01:49:50;17.10;;;11.30;;
27412;SDS011;14871;52.702;5.230;2023-05-10T01:52:19;16.73;;;11.25;;
27412;SDS011;14871;52.702;5.230;2023-05-10T01:54:55;17.77;;;11.55;;
27412;SDS011;14871;52.702;5.230;2023-05-10T01:57:25;19.70;;;13.30;;
27412;SDS011;14871;52.702;5.230;2023-05-10T01:59:52;20.92;;;12.32;;
27412;SDS011;14871;52.702;5.230;2023-05-10T02:02:20;15.88;;;12.00;;
27412;SDS011;14871;52.702;5.230;2023-05-10T02:04:48;17.00;;;11.82;;
27412;SDS011;14871;52.702;5.230;2023-05-10T02:07:16;17.02;;;11.90;;
27412;SDS011;14871;52.702;5.230;2023-05-10T02:09:44;17.05;;;11.75;;
27412;SDS011;14871;52.702;5.230;2023-05-10T02:12:13;14.75;;;10.82;;
27412;SDS011;14871;52.702;5.230;2023-05-10T02:14:41;15.35;;;10.75;;
27412;SDS011;14871;52.702;5.230;2023-05-10T02:17:08;14.73;;;10.77;;
27412;SDS011;14871;52.702;5.230;2023-05-10T02:19:36;15.35;;;10.65;;
27412;SDS011;14871;52.702;5.230;2023-05-10T02:22:04;16.55;;;10.48;;
27412;SDS011;14871;52.702;5.230;2023-05-10T02:24:32;18.35;;;11.35;;
27412;SDS011;14871;52.702;5.230;2023-05-10T02:26:59;18.83;;;11.77;;
27412;SDS011;14871;52.702;5.230;2023-05-10T02:29:27;16.77;;;11.63;;
27412;SDS011;14871;52.702;5.230;2023-05-10T02:31:54;18.30;;;12.10;;
27412;SDS011;14871;52.702;5.230;2023-05-10T02:34:21;21.30;;;13.48;;
27412;SDS011;14871;52.702;5.230;2023-05-10T02:36:50;18.33;;;11.80;;
27412;SDS011;14871;52.702;5.230;2023-05-10T02:39:18;20.52;;;13.68;;
27412;SDS011;14871;52.702;5.230;2023-05-10T02:41:45;20.88;;;13.32;;
27412;SDS011;14871;52.702;5.230;2023-05-10T02:44:14;20.20;;;13.65;;
27412;SDS011;14871;52.702;5.230;2023-05-10T02:46:42;22.88;;;13.23;;
27412;SDS011;14871;52.702;5.230;2023-05-10T02:49:09;25.55;;;14.52;;
27412;SDS011;14871;52.702;5.230;2023-05-10T02:51:35;23.08;;;13.30;;
27412;SDS011;14871;52.702;5.230;2023-05-10T02:54:13;21.45;;;12.88;;
27412;SDS011;14871;52.702;5.230;2023-05-10T02:56:47;19.08;;;12.10;;
27412;SDS011;14871;52.702;5.230;2023-05-10T02:59:18;20.42;;;12.40;;
27412;SDS011;14871;52.702;5.230;2023-05-10T03:01:44;18.70;;;11.90;;
27412;SDS011;14871;52.702;5.230;2023-05-10T03:04:10;18.30;;;11.55;;
27412;SDS011;14871;52.702;5.230;2023-05-10T03:06:36;23.02;;;11.52;;
27412;SDS011;14871;52.702;5.230;2023-05-10T03:09:01;18.00;;;11.00;;
27412;SDS011;14871;52.702;5.230;2023-05-10T03:14:35;15.55;;;10.48;;
27412;SDS011;14871;52.702;5.230;2023-05-10T03:17:20;20.33;;;10.68;;
27412;SDS011;14871;52.702;5.230;2023-05-10T03:22:25;17.85;;;10.10;;
27412;SDS011;14871;52.702;5.230;2023-05-10T03:24:57;20.92;;;11.80;;
27412;SDS011;14871;52.702;5.230;2023-05-10T03:27:26;19.33;;;12.10;;
27412;SDS011;14871;52.702;5.230;2023-05-10T03:29:53;19.05;;;11.32;;
27412;SDS011;14871;52.702;5.230;2023-05-10T03:32:19;24.15;;;11.90;;
27412;SDS011;14871;52.702;5.230;2023-05-10T03:34:45;25.30;;;12.38;;
27412;SDS011;14871;52.702;5.230;2023-05-10T03:37:11;26.13;;;13.80;;
27412;SDS011;14871;52.702;5.230;2023-05-10T03:39:37;26.23;;;14.48;;
27412;SDS011;14871;52.702;5.230;2023-05-10T03:42:02;30.88;;;14.68;;
27412;SDS011;14871;52.702;5.230;2023-05-10T03:44:29;28.08;;;14.57;;
27412;SDS011;14871;52.702;5.230;2023-05-10T03:46:54;30.77;;;15.02;;
27412;SDS011;14871;52.702;5.230;2023-05-10T03:49:21;26.63;;;14.77;;
27412;SDS011;14871;52.702;5.230;2023-05-10T03:51:47;25.02;;;13.65;;
27412;SDS011;14871;52.702;5.230;2023-05-10T03:54:13;27.17;;;13.63;;
27412;SDS011;14871;52.702;5.230;2023-05-10T03:56:39;23.10;;;12.77;;
27412;SDS011;14871;52.702;5.230;2023-05-10T03:59:05;23.63;;;12.15;;
27412;SDS011;14871;52.702;5.230;2023-05-10T04:01:34;27.17;;;13.32;;
27412;SDS011;14871;52.702;5.230;2023-05-10T04:04:00;22.77;;;12.38;;
27412;SDS011;14871;52.702;5.230;2023-05-10T04:06:26;23.42;;;12.18;;
27412;SDS011;14871;52.702;5.230;2023-05-10T04:08:51;24.33;;;12.52;;
27412;SDS011;14871;52.702;5.230;2023-05-10T04:11:17;20.65;;;11.63;;
27412;SDS011;14871;52.702;5.230;2023-05-10T04:13:43;22.15;;;10.60;;
27412;SDS011;14871;52.702;5.230;2023-05-10T04:16:09;20.83;;;11.27;;
27412;SDS011;14871;52.702;5.230;2023-05-10T04:18:35;20.80;;;10.98;;
27412;SDS011;14871;52.702;5.230;2023-05-10T04:21:01;15.93;;;10.13;;
27412;SDS011;14871;52.702;5.230;2023-05-10T04:23:27;20.25;;;10.93;;
27412;SDS011;14871;52.702;5.230;2023-05-10T04:25:58;19.48;;;11.18;;
27412;SDS011;14871;52.702;5.230;2023-05-10T04:28:25;22.02;;;11.23;;
27412;SDS011;14871;52.702;5.230;2023-05-10T04:30:52;21.63;;;11.88;;
27412;SDS011;14871;52.702;5.230;2023-05-10T04:33:18;21.48;;;12.60;;
27412;SDS011;14871;52.702;5.230;2023-05-10T04:35:43;21.83;;;12.05;;
27412;SDS011;14871;52.702;5.230;2023-05-10T04:38:10;18.40;;;10.90;;
27412;SDS011;14871;52.702;5.230;2023-05-10T04:40:36;18.17;;;10.98;;
27412;SDS011;14871;52.702;5.230;2023-05-10T04:43:01;15.40;;;10.50;;
27412;SDS011;14871;52.702;5.230;2023-05-10T04:45:27;16.52;;;10.07;;
27412;SDS011;14871;52.702;5.230;2023-05-10T04:47:53;15.27;;;9.23;;
27412;SDS011;14871;52.702;5.230;2023-05-10T04:50:18;13.68;;;9.43;;
27412;SDS011;14871;52.702;5.230;2023-05-10T04:52:44;13.98;;;9.75;;
27412;SDS011;14871;52.702;5.230;2023-05-10T04:55:10;15.95;;;10.10;;
27412;SDS011;14871;52.702;5.230;2023-05-10T04:57:36;16.30;;;10.32;;
27412;SDS011;14871;52.702;5.230;2023-05-10T05:00:03;20.15;;;11.30;;
27412;SDS011;14871;52.702;5.230;2023-05-10T05:02:29;17.80;;;10.57;;
27412;SDS011;14871;52.702;5.230;2023-05-10T05:04:55;15.35;;;10.27;;
27412;SDS011;14871;52.702;5.230;2023-05-10T05:07:23;16.30;;;11.13;;
27412;SDS011;14871;52.702;5.230;2023-05-10T05:09:48;18.00;;;10.15;;
27412;SDS011;14871;52.702;5.230;2023-05-10T05:12:14;17.58;;;11.48;;
27412;SDS011;14871;52.702;5.230;2023-05-10T05:14:40;17.40;;;10.95;;
27412;SDS011;14871;52.702;5.230;2023-05-10T05:17:06;16.35;;;11.05;;
27412;SDS011;14871;52.702;5.230;2023-05-10T05:19:32;18.42;;;10.88;;
27412;SDS011;14871;52.702;5.230;2023-05-10T05:21:58;19.08;;;11.00;;
27412;SDS011;14871;52.702;5.230;2023-05-10T05:24:24;21.05;;;12.13;;
27412;SDS011;14871;52.702;5.230;2023-05-10T05:26:50;20.63;;;11.32;;
27412;SDS011;14871;52.702;5.230;2023-05-10T05:29:16;21.17;;;11.98;;
27412;SDS011;14871;52.702;5.230;2023-05-10T05:31:42;20.98;;;11.70;;
27412;SDS011;14871;52.702;5.230;2023-05-10T05:34:07;20.00;;;12.25;;
27412;SDS011;14871;52.702;5.230;2023-05-10T05:36:35;21.73;;;11.98;;
27412;SDS011;14871;52.702;5.230;2023-05-10T05:39:03;22.55;;;12.95;;
27412;SDS011;14871;52.702;5.230;2023-05-10T05:41:29;19.25;;;11.55;;
27412;SDS011;14871;52.702;5.230;2023-05-10T05:43:54;22.95;;;12.30;;
27412;SDS011;14871;52.702;5.230;2023-05-10T05:46:20;21.02;;;12.40;;
27412;SDS011;14871;52.702;5.230;2023-05-10T05:48:46;21.33;;;12.30;;
27412;SDS011;14871;52.702;5.230;2023-05-10T05:51:12;21.55;;;12.13;;
27412;SDS011;14871;52.702;5.230;2023-05-10T05:53:37;24.58;;;12.70;;
27412;SDS011;14871;52.702;5.230;2023-05-10T05:56:03;22.70;;;12.82;;
27412;SDS011;14871;52.702;5.230;2023-05-10T05:58:29;22.75;;;12.35;;
27412;SDS011;14871;52.702;5.230;2023-05-10T06:00:55;22.00;;;12.75;;
27412;SDS011;14871;52.702;5.230;2023-05-10T06:03:21;23.67;;;13.20;;
27412;SDS011;14871;52.702;5.230;2023-05-10T06:05:47;23.98;;;13.73;;
27412;SDS011;14871;52.702;5.230;2023-05-10T06:08:13;23.55;;;12.88;;
27412;SDS011;14871;52.702;5.230;2023-05-10T06:10:39;23.33;;;13.82;;
27412;SDS011;14871;52.702;5.230;2023-05-10T06:13:05;22.73;;;13.98;;
27412;SDS011;14871;52.702;5.230;2023-05-10T06:15:31;24.33;;;13.90;;
27412;SDS011;14871;52.702;5.230;2023-05-10T06:17:57;22.38;;;13.05;;
27412;SDS011;14871;52.702;5.230;2023-05-10T06:20:23;26.75;;;13.85;;
27412;SDS011;14871;52.702;5.230;2023-05-10T06:22:49;23.38;;;14.18;;
27412;SDS011;14871;52.702;5.230;2023-05-10T06:25:15;25.13;;;14.63;;
27412;SDS011;14871;52.702;5.230;2023-05-10T06:27:43;21.33;;;12.93;;
27412;SDS011;14871;52.702;5.230;2023-05-10T06:30:09;23.00;;;14.35;;
27412;SDS011;14871;52.702;5.230;2023-05-10T06:32:36;25.83;;;14.80;;
27412;SDS011;14871;52.702;5.230;2023-05-10T06:35:02;24.90;;;15.50;;
27412;SDS011;14871;52.702;5.230;2023-05-10T06:37:28;22.73;;;13.60;;
27412;SDS011;14871;52.702;5.230;2023-05-10T06:39:53;23.67;;;15.27;;
27412;SDS011;14871;52.702;5.230;2023-05-10T06:42:19;26.75;;;15.93;;
27412;SDS011;14871;52.702;5.230;2023-05-10T06:44:45;23.30;;;15.40;;
27412;SDS011;14871;52.702;5.230;2023-05-10T06:47:11;27.48;;;16.73;;
27412;SDS011;14871;52.702;5.230;2023-05-10T06:49:37;24.50;;;17.02;;
27412;SDS011;14871;52.702;5.230;2023-05-10T06:52:03;21.67;;;16.13;;
27412;SDS011;14871;52.702;5.230;2023-05-10T06:54:29;27.10;;;17.90;;
27412;SDS011;14871;52.702;5.230;2023-05-10T06:56:54;23.05;;;18.27;;
27412;SDS011;14871;52.702;5.230;2023-05-10T06:59:20;24.67;;;17.73;;
27412;SDS011;14871;52.702;5.230;2023-05-10T07:01:46;26.20;;;18.17;;
27412;SDS011;14871;52.702;5.230;2023-05-10T07:04:12;27.50;;;19.38;;
27412;SDS011;14871;52.702;5.230;2023-05-10T07:06:38;25.48;;;18.42;;
27412;SDS011;14871;52.702;5.230;2023-05-10T07:09:04;28.42;;;19.30;;
27412;SDS011;14871;52.702;5.230;2023-05-10T07:11:30;24.92;;;19.45;;
27412;SDS011;14871;52.702;5.230;2023-05-10T07:13:56;25.65;;;18.42;;
27412;SDS011;14871;52.702;5.230;2023-05-10T07:16:22;29.80;;;19.02;;
27412;SDS011;14871;52.702;5.230;2023-05-10T07:18:48;25.67;;;17.77;;
27412;SDS011;14871;52.702;5.230;2023-05-10T07:21:15;27.20;;;19.73;;
27412;SDS011;14871;52.702;5.230;2023-05-10T07:23:41;27.35;;;19.77;;
27412;SDS011;14871;52.702;5.230;2023-05-10T07:26:07;24.45;;;19.00;;
27412;SDS011;14871;52.702;5.230;2023-05-10T07:28:34;24.63;;;17.60;;
27412;SDS011;14871;52.702;5.230;2023-05-10T07:31:02;21.77;;;16.58;;
27412;SDS011;14871;52.702;5.230;2023-05-10T07:33:28;24.77;;;18.30;;
27412;SDS011;14871;52.702;5.230;2023-05-10T07:35:53;26.00;;;18.52;;
27412;SDS011;14871;52.702;5.230;2023-05-10T07:38:20;26.15;;;18.17;;
27412;SDS011;14871;52.702;5.230;2023-05-10T07:40:45;22.00;;;16.95;;
27412;SDS011;14871;52.702;5.230;2023-05-10T07:43:11;22.48;;;16.25;;
27412;SDS011;14871;52.702;5.230;2023-05-10T07:45:37;24.63;;;16.55;;
27412;SDS011;14871;52.702;5.230;2023-05-10T07:48:03;21.45;;;14.88;;
27412;SDS011;14871;52.702;5.230;2023-05-10T07:50:29;18.33;;;14.75;;
27412;SDS011;14871;52.702;5.230;2023-05-10T07:52:54;17.55;;;14.23;;
27412;SDS011;14871;52.702;5.230;2023-05-10T07:55:20;18.92;;;14.13;;
27412;SDS011;14871;52.702;5.230;2023-05-10T07:57:46;18.88;;;13.75;;
27412;SDS011;14871;52.702;5.230;2023-05-10T08:00:12;20.23;;;14.32;;
27412;SDS011;14871;52.702;5.230;2023-05-10T08:02:41;20.50;;;14.05;;
27412;SDS011;14871;52.702;5.230;2023-05-10T08:05:07;21.15;;;13.02;;
27412;SDS011;14871;52.702;5.230;2023-05-10T08:07:33;18.67;;;13.50;;
27412;SDS011;14871;52.702;5.230;2023-05-10T08:09:59;16.75;;;12.50;;
27412;SDS011;14871;52.702;5.230;2023-05-10T08:12:25;21.92;;;13.25;;
27412;SDS011;14871;52.702;5.230;2023-05-10T08:14:51;16.98;;;12.88;;
27412;SDS011;14871;52.702;5.230;2023-05-10T08:17:17;16.50;;;13.15;;
27412;SDS011;14871;52.702;5.230;2023-05-10T08:19:43;16.20;;;11.95;;
27412;SDS011;14871;52.702;5.230;2023-05-10T08:22:08;17.85;;;12.38;;
27412;SDS011;14871;52.702;5.230;2023-05-10T08:24:35;16.67;;;11.48;;
27412;SDS011;14871;52.702;5.230;2023-05-10T08:27:03;17.58;;;11.98;;
27412;SDS011;14871;52.702;5.230;2023-05-10T08:29:30;16.45;;;11.73;;
27412;SDS011;14871;52.702;5.230;2023-05-10T08:31:56;15.00;;;11.48;;
27412;SDS011;14871;52.702;5.230;2023-05-10T08:34:22;14.75;;;11.63;;
27412;SDS011;14871;52.702;5.230;2023-05-10T08:36:52;16.55;;;12.82;;
27412;SDS011;14871;52.702;5.230;2023-05-10T08:39:18;15.10;;;12.32;;
27412;SDS011;14871;52.702;5.230;2023-05-10T08:41:44;16.27;;;12.02;;
27412;SDS011;14871;52.702;5.230;2023-05-10T08:44:12;20.38;;;13.15;;
27412;SDS011;14871;52.702;5.230;2023-05-10T08:46:44;16.42;;;12.88;;
27412;SDS011;14871;52.702;5.230;2023-05-10T08:49:16;19.52;;;13.73;;
27412;SDS011;14871;52.702;5.230;2023-05-10T08:51:45;20.58;;;13.63;;
27412;SDS011;14871;52.702;5.230;2023-05-10T08:54:17;20.35;;;13.35;;
27412;SDS011;14871;52.702;5.230;2023-05-10T08:56:43;17.63;;;12.75;;
27412;SDS011;14871;52.702;5.230;2023-05-10T08:59:09;16.85;;;12.15;;
27412;SDS011;14871;52.702;5.230;2023-05-10T09:01:36;14.75;;;12.05;;
27412;SDS011;14871;52.702;5.230;2023-05-10T09:04:02;15.07;;;12.07;;
27412;SDS011;14871;52.702;5.230;2023-05-10T09:06:29;16.67;;;12.27;;
27412;SDS011;14871;52.702;5.230;2023-05-10T09:08:55;16.50;;;12.13;;
27412;SDS011;14871;52.702;5.230;2023-05-10T09:11:20;16.30;;;12.32;;
27412;SDS011;14871;52.702;5.230;2023-05-10T09:13:48;17.73;;;11.75;;
27412;SDS011;14871;52.702;5.230;2023-05-10T09:16:14;13.10;;;10.48;;
27412;SDS011;14871;52.702;5.230;2023-05-10T09:18:40;14.95;;;10.80;;
27412;SDS011;14871;52.702;5.230;2023-05-10T09:21:06;15.10;;;10.02;;
27412;SDS011;14871;52.702;5.230;2023-05-10T09:23:32;13.13;;;10.40;;
27412;SDS011;14871;52.702;5.230;2023-05-10T09:26:04;14.32;;;10.43;;
27412;SDS011;14871;52.702;5.230;2023-05-10T09:28:33;16.52;;;11.27;;
27412;SDS011;14871;52.702;5.230;2023-05-10T09:31:14;16.75;;;10.65;;
27412;SDS011;14871;52.702;5.230;2023-05-10T09:33:50;14.90;;;10.60;;
27412;SDS011;14871;52.702;5.230;2023-05-10T09:36:16;14.85;;;11.18;;
27412;SDS011;14871;52.702;5.230;2023-05-10T09:38:48;16.70;;;11.48;;
27412;SDS011;14871;52.702;5.230;2023-05-10T09:41:17;15.90;;;11.57;;
27412;SDS011;14871;52.702;5.230;2023-05-10T09:43:50;16.55;;;12.00;;
27412;SDS011;14871;52.702;5.230;2023-05-10T09:46:21;16.33;;;12.00;;
27412;SDS011;14871;52.702;5.230;2023-05-10T09:48:47;18.02;;;13.23;;
27412;SDS011;14871;52.702;5.230;2023-05-10T09:51:20;19.40;;;13.45;;
27412;SDS011;14871;52.702;5.230;2023-05-10T09:53:46;19.08;;;12.68;;
27412;SDS011;14871;52.702;5.230;2023-05-10T09:56:12;16.67;;;12.30;;
27412;SDS011;14871;52.702;5.230;2023-05-10T09:58:38;17.05;;;12.35;;
27412;SDS011;14871;52.702;5.230;2023-05-10T10:01:04;18.10;;;13.68;;
27412;SDS011;14871;52.702;5.230;2023-05-10T10:03:41;17.88;;;13.32;;
27412;SDS011;14871;52.702;5.230;2023-05-10T10:06:08;21.77;;;13.93;;
27412;SDS011;14871;52.702;5.230;2023-05-10T10:08:34;21.05;;;14.60;;
27412;SDS011;14871;52.702;5.230;2023-05-10T10:11:00;23.00;;;15.40;;
27412;SDS011;14871;52.702;5.230;2023-05-10T10:13:26;22.17;;;14.60;;
27412;SDS011;14871;52.702;5.230;2023-05-10T10:15:52;23.10;;;15.23;;
27412;SDS011;14871;52.702;5.230;2023-05-10T10:18:20;19.67;;;15.02;;
27412;SDS011;14871;52.702;5.230;2023-05-10T10:20:52;20.52;;;14.93;;
27412;SDS011;14871;52.702;5.230;2023-05-10T10:23:19;20.48;;;14.18;;
27412;SDS011;14871;52.702;5.230;2023-05-10T10:25:45;21.20;;;14.23;;
27412;SDS011;14871;52.702;5.230;2023-05-10T10:28:24;18.75;;;13.70;;
27412;SDS011;14871;52.702;5.230;2023-05-10T10:31:01;19.30;;;12.60;;
27412;SDS011;14871;52.702;5.230;2023-05-10T10:33:51;19.40;;;12.23;;
27412;SDS011;14871;52.702;5.230;2023-05-10T10:36:24;18.95;;;11.68;;
27412;SDS011;14871;52.702;5.230;2023-05-10T10:41:32;17.58;;;11.55;;
27412;SDS011;14871;52.702;5.230;2023-05-10T10:52:39;17.13;;;12.43;;
27412;SDS011;14871;52.702;5.230;2023-05-10T10:55:06;20.13;;;13.05;;
27412;SDS011;14871;52.702;5.230;2023-05-10T10:57:44;20.65;;;13.50;;
27412;SDS011;14871;52.702;5.230;2023-05-10T11:00:30;18.83;;;11.65;;
27412;SDS011;14871;52.702;5.230;2023-05-10T11:05:36;18.83;;;12.00;;
27412;SDS011;14871;52.702;5.230;2023-05-10T11:08:27;20.90;;;13.50;;
27412;SDS011;14871;52.702;5.230;2023-05-10T11:19:00;17.95;;;12.75;;
27412;SDS011;14871;52.702;5.230;2023-05-10T11:21:27;19.13;;;12.57;;
27412;SDS011;14871;52.702;5.230;2023-05-10T11:23:55;17.88;;;13.35;;
27412;SDS011;14871;52.702;5.230;2023-05-10T11:26:30;17.13;;;12.18;;
27412;SDS011;14871;52.702;5.230;2023-05-10T11:31:25;23.10;;;13.63;;
27412;SDS011;14871;52.702;5.230;2023-05-10T11:33:55;18.75;;;13.75;;
27412;SDS011;14871;52.702;5.230;2023-05-10T11:36:29;14.77;;;11.90;;
27412;SDS011;14871;52.702;5.230;2023-05-10T11:38:58;17.05;;;11.88;;
27412;SDS011;14871;52.702;5.230;2023-05-10T11:41:24;16.48;;;12.82;;
27412;SDS011;14871;52.702;5.230;2023-05-10T11:43:53;15.90;;;11.35;;
27412;SDS011;14871;52.702;5.230;2023-05-10T11:46:21;16.02;;;11.18;;
27412;SDS011;14871;52.702;5.230;2023-05-10T11:48:49;14.32;;;11.45;;
27412;SDS011;14871;52.702;5.230;2023-05-10T11:51:20;15.68;;;12.15;;
27412;SDS011;14871;52.702;5.230;2023-05-10T11:53:49;15.55;;;10.82;;
27412;SDS011;14871;52.702;5.230;2023-05-10T11:56:19;17.95;;;12.02;;
27412;SDS011;14871;52.702;5.230;2023-05-10T11:58:51;15.82;;;12.00;;
27412;SDS011;14871;52.702;5.230;2023-05-10T12:01:24;12.60;;;10.50;;
27412;SDS011;14871;52.702;5.230;2023-05-10T12:03:51;14.40;;;10.00;;
27412;SDS011;14871;52.702;5.230;2023-05-10T12:06:20;15.05;;;10.77;;
27412;SDS011;14871;52.702;5.230;2023-05-10T12:08:47;12.32;;;9.70;;
27412;SDS011;14871;52.702;5.230;2023-05-10T12:11:17;11.77;;;8.70;;
27412;SDS011;14871;52.702;5.230;2023-05-10T12:13:43;11.55;;;8.20;;
27412;SDS011;14871;52.702;5.230;2023-05-10T12:16:20;10.32;;;7.50;;
27412;SDS011;14871;52.702;5.230;2023-05-10T12:18:51;10.25;;;7.13;;
27412;SDS011;14871;52.702;5.230;2023-05-10T12:21:18;9.50;;;7.97;;
27412;SDS011;14871;52.702;5.230;2023-05-10T12:23:45;12.98;;;8.10;;
27412;SDS011;14871;52.702;5.230;2023-05-10T12:26:12;12.23;;;9.23;;
27412;SDS011;14871;52.702;5.230;2023-05-10T12:28:38;11.25;;;8.98;;
27412;SDS011;14871;52.702;5.230;2023-05-10T12:31:07;11.25;;;8.70;;
27412;SDS011;14871;52.702;5.230;2023-05-10T12:33:40;12.63;;;8.77;;
27412;SDS011;14871;52.702;5.230;2023-05-10T12:36:11;12.32;;;9.43;;
27412;SDS011;14871;52.702;5.230;2023-05-10T12:38:39;11.27;;;8.38;;
27412;SDS011;14871;52.702;5.230;2023-05-10T12:41:10;11.00;;;8.55;;
27412;SDS011;14871;52.702;5.230;2023-05-10T12:43:38;11.43;;;8.65;;
27412;SDS011;14871;52.702;5.230;2023-05-10T12:46:08;13.50;;;8.40;;
27412;SDS011;14871;52.702;5.230;2023-05-10T12:48:35;14.80;;;9.07;;
27412;SDS011;14871;52.702;5.230;2023-05-10T12:51:02;11.68;;;8.35;;
27412;SDS011;14871;52.702;5.230;2023-05-10T12:53:30;7.72;;;6.78;;
27412;SDS011;14871;52.702;5.230;2023-05-10T12:56:01;10.23;;;7.03;;
27412;SDS011;14871;52.702;5.230;2023-05-10T12:58:27;9.60;;;6.75;;
27412;SDS011;14871;52.702;5.230;2023-05-10T13:00:52;10.55;;;7.60;;
27412;SDS011;14871;52.702;5.230;2023-05-10T13:03:19;11.60;;;7.53;;
27412;SDS011;14871;52.702;5.230;2023-05-10T13:05:45;8.32;;;6.60;;
27412;SDS011;14871;52.702;5.230;2023-05-10T13:08:12;9.32;;;7.40;;
27412;SDS011;14871;52.702;5.230;2023-05-10T13:10:38;8.63;;;7.45;;
27412;SDS011;14871;52.702;5.230;2023-05-10T13:13:04;8.88;;;7.35;;
27412;SDS011;14871;52.702;5.230;2023-05-10T13:15:30;8.95;;;7.15;;
27412;SDS011;14871;52.702;5.230;2023-05-10T13:17:56;11.45;;;7.47;;
27412;SDS011;14871;52.702;5.230;2023-05-10T13:20:21;8.75;;;7.22;;
27412;SDS011;14871;52.702;5.230;2023-05-10T13:22:47;9.00;;;6.80;;
27412;SDS011;14871;52.702;5.230;2023-05-10T13:25:13;8.40;;;7.25;;
27412;SDS011;14871;52.702;5.230;2023-05-10T13:27:39;9.05;;;7.05;;
27412;SDS011;14871;52.702;5.230;2023-05-10T13:30:06;12.23;;;9.15;;
27412;SDS011;14871;52.702;5.230;2023-05-10T13:32:33;12.52;;;9.55;;
27412;SDS011;14871;52.702;5.230;2023-05-10T13:34:59;11.55;;;9.23;;
27412;SDS011;14871;52.702;5.230;2023-05-10T13:37:25;11.23;;;9.57;;
27412;SDS011;14871;52.702;5.230;2023-05-10T13:39:51;11.40;;;9.32;;
27412;SDS011;14871;52.702;5.230;2023-05-10T13:42:17;11.98;;;8.93;;
27412;SDS011;14871;52.702;5.230;2023-05-10T13:44:43;12.60;;;8.65;;
27412;SDS011;14871;52.702;5.230;2023-05-10T13:47:09;10.80;;;9.23;;
27412;SDS011;14871;52.702;5.230;2023-05-10T13:49:35;11.55;;;9.65;;
27412;SDS011;14871;52.702;5.230;2023-05-10T13:52:01;11.30;;;8.30;;
27412;SDS011;14871;52.702;5.230;2023-05-10T13:54:34;10.23;;;8.00;;
27412;SDS011;14871;52.702;5.230;2023-05-10T13:57:00;11.35;;;8.55;;
27412;SDS011;14871;52.702;5.230;2023-05-10T13:59:26;9.15;;;7.68;;
27412;SDS011;14871;52.702;5.230;2023-05-10T14:01:52;7.03;;;6.32;;
27412;SDS011;14871;52.702;5.230;2023-05-10T14:04:18;7.63;;;6.03;;
27412;SDS011;14871;52.702;5.230;2023-05-10T14:06:43;8.52;;;5.40;;
27412;SDS011;14871;52.702;5.230;2023-05-10T14:09:09;6.05;;;4.97;;
27412;SDS011;14871;52.702;5.230;2023-05-10T14:11:35;6.15;;;4.50;;
27412;SDS011;14871;52.702;5.230;2023-05-10T14:14:00;6.60;;;4.50;;
27412;SDS011;14871;52.702;5.230;2023-05-10T14:16:26;5.53;;;4.05;;
27412;SDS011;14871;52.702;5.230;2023-05-10T14:18:52;8.57;;;4.20;;
27412;SDS011;14871;52.702;5.230;2023-05-10T14:21:18;7.20;;;4.95;;
27412;SDS011;14871;52.702;5.230;2023-05-10T14:23:43;8.52;;;5.70;;
27412;SDS011;14871;52.702;5.230;2023-05-10T14:26:09;8.32;;;6.57;;
27412;SDS011;14871;52.702;5.230;2023-05-10T14:28:35;9.05;;;6.68;;
27412;SDS011;14871;52.702;5.230;2023-05-10T14:31:01;7.82;;;6.50;;
27412;SDS011;14871;52.702;5.230;2023-05-10T14:33:27;7.80;;;6.15;;
27412;SDS011;14871;52.702;5.230;2023-05-10T14:35:53;9.27;;;6.22;;
27412;SDS011;14871;52.702;5.230;2023-05-10T14:38:21;8.50;;;6.53;;
27412;SDS011;14871;52.702;5.230;2023-05-10T14:40:47;8.20;;;5.75;;
27412;SDS011;14871;52.702;5.230;2023-05-10T14:43:12;9.32;;;5.60;;
27412;SDS011;14871;52.702;5.230;2023-05-10T14:45:38;8.32;;;6.13;;
27412;SDS011;14871;52.702;5.230;2023-05-10T14:48:04;8.13;;;6.75;;
27412;SDS011;14871;52.702;5.230;2023-05-10T14:50:30;8.85;;;6.22;;
27412;SDS011;14871;52.702;5.230;2023-05-10T14:52:57;9.07;;;6.70;;
27412;SDS011;14871;52.702;5.230;2023-05-10T14:55:23;7.55;;;6.53;;
27412;SDS011;14871;52.702;5.230;2023-05-10T14:57:49;8.57;;;6.78;;
27412;SDS011;14871;52.702;5.230;2023-05-10T15:00:15;9.70;;;6.38;;
27412;SDS011;14871;52.702;5.230;2023-05-10T15:02:41;8.20;;;6.25;;
27412;SDS011;14871;52.702;5.230;2023-05-10T15:05:07;8.60;;;6.50;;
27412;SDS011;14871;52.702;5.230;2023-05-10T15:07:33;6.25;;;5.22;;
27412;SDS011;14871;52.702;5.230;2023-05-10T15:09:59;6.78;;;5.03;;
27412;SDS011;14871;52.702;5.230;2023-05-10T15:12:24;7.63;;;4.47;;